Time;durP1;ratioP1;P1;durP2;ratioP2;P2;SDS_P1;SDS_P2;PMS_P1;PMS_P2;Temp;Humidity;BMP_temperature;BMP_pressure;BME280_temperature;BME280_humidity;BME280_pressure;Samples;Min_cycle;Max_cycle;Signal;HPM_P1;HPM_P2
2022/06/08 00:01:33;;;;;;;11.63;4.15;;;;;;;13.80;100.00;100303.63;4884593;29;20025;-87
2022/06/08 00:04:01;;;;;;;16.23;4.68;;;;;;;13.77;100.00;100288.69;4861478;29;20040;-87
2022/06/08 00:06:26;;;;;;;8.82;4.03;;;;;;;13.63;100.00;100263.75;4876405;29;20048;-87
2022/06/08 00:08:57;;;;;;;11.38;3.20;;;;;;;13.79;100.00;100272.25;4857052;29;20026;-88
2022/06/08 00:11:23;;;;;;;8.80;2.83;;;;;;;13.83;100.00;100278.84;4873849;29;20026;-88
2022/06/08 00:13:49;;;;;;;10.48;2.65;;;;;;;13.86;100.00;100281.06;4886701;29;20057;-88
2022/06/08 00:16:16;;;;;;;9.45;2.90;;;;;;;13.74;100.00;100251.34;4876370;29;20386;-88
2022/06/08 00:18:44;;;;;;;11.68;3.47;;;;;;;13.73;100.00;100248.84;4874646;29;20044;-87
2022/06/08 00:21:10;;;;;;;7.55;2.97;;;;;;;13.88;100.00;100264.63;4880764;29;20037;-87
2022/06/08 00:23:36;;;;;;;14.68;3.83;;;;;;;13.87;100.00;100255.66;4859465;29;20114;-87
2022/06/08 00:26:01;;;;;;;11.68;3.75;;;;;;;13.91;100.00;100266.84;4884124;29;20033;-86
2022/06/08 00:28:27;;;;;;;12.93;4.05;;;;;;;13.93;100.00;100256.63;4873865;29;20033;-87
2022/06/08 00:30:53;;;;;;;18.17;4.50;;;;;;;13.87;100.00;100242.13;4859729;29;20376;-87
2022/06/08 00:33:18;;;;;;;15.10;4.55;;;;;;;13.92;100.00;100252.28;4876597;29;20048;-87
2022/06/08 00:35:43;;;;;;;14.13;4.50;;;;;;;13.92;100.00;100241.47;4870517;29;20060;-87
2022/06/08 00:38:12;;;;;;;14.75;5.18;;;;;;;13.77;100.00;100204.03;4865928;29;20033;-88
2022/06/08 00:40:46;;;;;;;19.55;5.40;;;;;;;13.97;100.00;100245.13;4892336;29;20028;-86
2022/06/08 00:43:11;;;;;;;21.23;5.50;;;;;;;13.99;100.00;100236.75;4880906;29;20038;-86
2022/06/08 00:45:37;;;;;;;16.73;5.95;;;;;;;13.88;100.00;100207.84;4840635;29;20041;-87
2022/06/08 00:48:05;;;;;;;14.23;5.25;;;;;;;13.97;100.00;100222.63;4840205;29;20041;-86
2022/06/08 00:50:40;;;;;;;14.25;4.80;;;;;;;13.93;100.00;100232.28;4857174;29;20025;-87
2022/06/08 00:53:07;;;;;;;12.45;4.85;;;;;;;13.89;100.00;100226.50;4866740;29;20044;-87
2022/06/08 00:55:36;;;;;;;20.77;4.75;;;;;;;13.94;100.00;100225.78;4859550;29;20075;-85
2022/06/08 00:58:05;;;;;;;17.27;4.78;;;;;;;13.99;100.00;100220.53;4880105;29;20070;-86
2022/06/08 01:00:37;;;;;;;17.67;5.00;;;;;;;13.96;100.00;100229.91;4893579;29;20040;-85
2022/06/08 01:03:02;;;;;;;14.70;4.60;;;;;;;13.96;100.00;100221.81;4860114;29;20036;-86
2022/06/08 01:05:41;;;;;;;16.05;5.30;;;;;;;13.81;100.00;100197.13;4860723;29;20029;-86
2022/06/08 01:08:46;;;;;;;13.45;4.95;;;;;;;13.95;100.00;100220.16;4892204;29;20111;-86
2022/06/08 01:11:16;;;;;;;;;;;;;;;13.94;100.00;100226.66;4787486;30;20031;-86
2022/06/08 01:13:42;;;;;;;14.80;4.65;;;;;;;13.95;100.00;100208.53;4866093;29;19967;-87
2022/06/08 01:16:10;;;;;;;17.33;4.50;;;;;;;13.85;100.00;100211.81;4893973;29;20033;-86
2022/06/08 01:18:36;;;;;;;10.88;3.88;;;;;;;13.89;100.00;100215.69;4877944;29;20448;-86
2022/06/08 01:21:21;;;;;;;13.38;3.90;;;;;;;13.78;100.00;100206.53;4872954;29;20064;-86
2022/06/08 01:23:55;;;;;;;16.33;4.28;;;;;;;13.76;100.00;100195.13;4843295;29;20073;-86
2022/06/08 01:26:51;;;;;;;17.42;4.45;;;;;;;13.78;100.00;100189.50;4852730;29;20033;-84
2022/06/08 01:29:31;;;;;;;18.83;4.75;;;;;;;13.83;100.00;100201.22;4880267;29;20028;-86
2022/06/08 01:31:56;;;;;;;13.85;4.28;;;;;;;13.87;100.00;100196.16;4877478;29;20044;-86
2022/06/08 01:34:24;;;;;;;14.32;4.15;;;;;;;13.86;100.00;100199.94;4888125;29;20022;-86
2022/06/08 01:37:02;;;;;;;14.70;4.97;;;;;;;13.87;100.00;100193.47;4878840;29;20485;-88
2022/06/08 01:39:39;;;;;;;13.10;4.35;;;;;;;13.80;100.00;100181.94;4862360;29;20018;-87
2022/06/08 01:42:27;;;;;;;14.60;4.60;;;;;;;13.83;100.00;100186.88;4893253;29;20061;-88
2022/06/08 01:45:33;;;;;;;16.65;4.40;;;;;;;13.92;100.00;100188.19;4896233;29;20029;-85
2022/06/08 01:48:06;;;;;;;8.60;3.90;;;;;;;13.87;100.00;100188.06;4878052;29;20036;-86
2022/06/08 01:50:38;;;;;;;12.95;4.32;;;;;;;13.86;100.00;100192.66;4880843;29;20034;-86
2022/06/08 01:53:12;;;;;;;12.93;3.97;;;;;;;13.84;100.00;100191.22;4879207;29;20081;-86
2022/06/08 01:56:13;;;;;;;8.15;3.85;;;;;;;13.85;100.00;100190.19;4885247;29;20047;-85
2022/06/08 01:58:53;;;;;;;8.20;3.97;;;;;;;13.87;100.00;100193.47;4875587;29;20041;-87
2022/06/08 02:02:01;;;;;;;14.07;3.92;;;;;;;13.85;100.00;100192.91;4884090;29;20029;-87
2022/06/08 02:04:49;;;;;;;8.70;4.18;;;;;;;13.86;100.00;100189.13;4851101;29;20042;-85
2022/06/08 02:07:20;;;;;;;10.52;3.63;;;;;;;13.85;100.00;100185.59;4874816;29;20041;-86
2022/06/08 02:09:59;;;;;;;13.05;4.00;;;;;;;13.84;100.00;100177.72;4857102;29;20060;-86
2022/06/08 02:12:30;;;;;;;9.88;4.50;;;;;;;13.87;100.00;100174.53;4872529;29;20082;-86
2022/06/08 02:15:06;;;;;;;10.25;4.20;;;;;;;13.84;100.00;100170.44;4857013;29;20067;-87
2022/06/08 02:17:41;;;;;;;10.35;4.20;;;;;;;13.91;100.00;100175.72;4874749;29;20055;-85
2022/06/08 02:20:17;;;;;;;15.50;5.22;;;;;;;13.92;100.00;100177.38;4870616;29;20033;-85
2022/06/08 02:22:49;;;;;;;13.40;4.70;;;;;;;13.91;100.00;100170.31;4875710;29;20060;-86
2022/06/08 02:25:25;;;;;;;11.38;4.13;;;;;;;13.84;100.00;100164.19;4872129;29;20175;-88
2022/06/08 02:28:01;;;;;;;8.18;4.00;;;;;;;13.83;100.00;100159.84;4865198;29;20088;-86
2022/06/08 02:30:29;;;;;;;12.52;5.18;;;;;;;13.75;100.00;100144.00;4873190;29;20025;-86
2022/06/08 02:35:54;;;;;;;11.35;4.57;;;;;;;13.85;100.00;100165.84;4872414;29;20063;-87
2022/06/08 02:38:24;;;;;;;12.30;4.55;;;;;;;13.82;100.00;100160.91;4859156;29;20051;-86
2022/06/08 02:40:54;;;;;;;8.75;4.43;;;;;;;13.79;100.00;100145.97;4856252;29;20033;-85
2022/06/08 02:43:27;;;;;;;12.05;4.47;;;;;;;13.82;100.00;100160.91;4856343;29;20057;-85
2022/06/08 02:46:27;;;;;;;17.33;4.50;;;;;;;13.81;100.00;100159.28;4856503;29;20117;-87
2022/06/08 02:48:52;;;;;;;14.45;4.78;;;;;;;13.84;100.00;100165.03;4843539;29;20059;-85
2022/06/08 02:51:27;;;;;;;16.58;5.32;;;;;;;13.82;100.00;100163.63;4874711;29;20033;-87
2022/06/08 02:53:55;;;;;;;;;;;;;;;13.80;100.00;100169.25;4881648;29;20066;-88
2022/06/08 02:56:51;;;;;;;8.95;4.45;;;;;;;13.62;100.00;100137.75;4879554;29;20027;-86
2022/06/08 02:59:21;;;;;;;19.83;4.93;;;;;;;13.77;100.00;100164.31;4883273;29;20026;-87
2022/06/08 03:01:56;;;;;;;16.45;5.25;;;;;;;13.73;100.00;100146.91;4877093;29;20025;-87
2022/06/08 03:04:29;;;;;;;15.48;5.10;;;;;;;13.74;100.00;100150.44;4862640;29;20018;-88
2022/06/08 03:07:07;;;;;;;20.20;5.22;;;;;;;13.79;100.00;100158.69;4860196;29;20073;-86
2022/06/08 03:09:33;;;;;;;11.75;5.18;;;;;;;13.78;100.00;100160.56;4867554;29;20014;-87
2022/06/08 03:12:11;;;;;;;12.05;5.30;;;;;;;13.79;100.00;100159.50;4851981;29;20037;-88
2022/06/08 03:14:37;;;;;;;20.15;5.78;;;;;;;13.79;100.00;100161.38;4846505;29;20046;-88
2022/06/08 03:17:05;;;;;;;23.27;6.22;;;;;;;13.83;100.00;100167.97;4846860;29;20041;-88
2022/06/08 03:19:33;;;;;;;15.40;5.63;;;;;;;13.81;100.00;100167.38;4847061;29;20016;-88
2022/06/08 03:21:59;;;;;;;10.70;4.97;;;;;;;13.87;100.00;100174.53;4846137;29;20045;-88
2022/06/08 03:24:26;;;;;;;11.30;4.80;;;;;;;13.84;100.00;100170.44;4847756;29;20038;-88
2022/06/08 03:26:55;;;;;;;13.00;5.30;;;;;;;13.90;100.00;100174.06;4843697;29;20034;-89
2022/06/08 03:29:21;;;;;;;15.77;5.05;;;;;;;13.71;100.00;100134.69;4855613;29;20029;-89
2022/06/08 03:31:47;;;;;;;13.40;5.63;;;;;;;13.84;100.00;100161.47;4861076;29;20034;-87
2022/06/08 03:34:12;;;;;;;18.05;6.60;;;;;;;13.73;100.00;100140.69;4858172;29;20121;-87
2022/06/08 03:36:38;;;;;;;14.63;5.90;;;;;;;13.93;100.00;100173.59;4861787;29;20034;-88
2022/06/08 03:39:06;;;;;;;15.75;6.05;;;;;;;13.94;100.00;100169.84;4861843;29;20043;-88
2022/06/08 03:41:32;;;;;;;16.27;5.85;;;;;;;13.88;100.00;100168.09;4862156;29;20065;-86
2022/06/08 03:43:58;;;;;;;14.93;5.90;;;;;;;13.90;100.00;100168.66;4863146;29;20071;-87
2022/06/08 03:46:23;;;;;;;14.77;6.20;;;;;;;13.92;100.00;100171.97;4860617;29;20098;-88
2022/06/08 03:48:51;;;;;;;15.88;6.10;;;;;;;13.96;100.00;100166.91;4843198;29;20117;-87
2022/06/08 03:51:17;;;;;;;11.23;5.97;;;;;;;13.96;100.00;100173.13;4843165;29;20041;-87
2022/06/08 03:53:50;;;;;;;14.20;5.72;;;;;;;13.82;100.00;100145.50;4827499;29;20110;-87
2022/06/08 03:56:19;;;;;;;16.50;6.50;;;;;;;13.96;100.00;100173.13;4841497;29;20035;-87
2022/06/08 03:58:45;;;;;;;12.68;6.00;;;;;;;14.00;100.00;100171.56;4842507;29;20038;-87
2022/06/08 04:01:12;;;;;;;13.93;5.85;;;;;;;13.98;100.00;100168.31;4840899;29;20129;-87
2022/06/08 04:03:37;;;;;;;16.33;5.82;;;;;;;13.92;100.00;100144.09;4841281;29;20038;-88
2022/06/08 04:06:03;;;;;;;15.63;5.90;;;;;;;13.94;100.00;100163.59;4841721;29;20053;-87
2022/06/08 04:08:28;;;;;;;13.80;5.85;;;;;;;13.98;100.00;100164.78;4844905;29;20035;-87
2022/06/08 04:10:54;;;;;;;14.88;5.38;;;;;;;13.99;100.00;100167.25;4839637;29;20045;-87
2022/06/08 04:13:19;;;;;;;8.65;4.40;;;;;;;13.99;100.00;100167.25;4834072;29;20069;-87
2022/06/08 04:15:45;;;;;;;12.88;5.07;;;;;;;14.00;100.00;100163.47;4863033;29;20029;-88
2022/06/08 04:18:17;;;;;;;11.10;5.00;;;;;;;14.08;100.00;100170.41;4861443;29;20046;-87
2022/06/08 04:20:45;;;;;;;11.82;5.35;;;;;;;14.00;100.00;100168.88;4858734;29;20041;-86
2022/06/08 04:23:11;;;;;;;10.40;4.65;;;;;;;14.05;100.00;100190.66;4862409;29;20029;-86
2022/06/08 04:25:38;;;;;;;14.20;4.97;;;;;;;14.03;100.00;100170.28;4865523;29;20086;-84
2022/06/08 04:28:04;;;;;;;12.82;4.70;;;;;;;14.01;100.00;100186.78;4863334;29;20495;-88
2022/06/08 04:30:29;;;;;;;12.27;5.15;;;;;;;13.92;100.00;100173.84;4877843;29;20057;-87
2022/06/08 04:32:57;;;;;;;11.95;5.20;;;;;;;13.73;100.00;100146.91;4878800;29;20034;-90
2022/06/08 04:35:25;;;;;;;10.88;4.72;;;;;;;14.05;100.00;100184.41;4869846;29;20093;-88
2022/06/08 04:37:51;;;;;;;10.32;4.50;;;;;;;14.00;100.00;100179.69;4864720;29;20026;-87
2022/06/08 04:40:18;;;;;;;7.85;4.45;;;;;;;14.03;100.00;100192.75;4861555;29;20063;-87
2022/06/08 04:42:43;;;;;;;12.15;4.45;;;;;;;14.00;100.00;100179.69;4875987;29;20061;-89
2022/06/08 04:45:10;;;;;;;14.98;5.15;;;;;;;14.05;100.00;100189.81;4869305;29;20038;-87
2022/06/08 04:47:36;;;;;;;12.02;4.10;;;;;;;14.03;100.00;100187.34;4873077;29;20503;-88
2022/06/08 04:50:02;;;;;;;9.75;4.13;;;;;;;13.99;100.00;100178.06;4868711;29;20040;-89
2022/06/08 04:52:28;;;;;;;11.98;4.10;;;;;;;13.98;100.00;100181.84;4868328;29;20037;-88
2022/06/08 04:54:53;;;;;;;8.52;3.90;;;;;;;13.95;100.00;100170.66;4870994;29;20044;-89
2022/06/08 04:57:19;;;;;;;11.43;4.00;;;;;;;13.95;100.00;100178.78;4866740;29;20018;-89
2022/06/08 04:59:44;;;;;;;11.20;4.38;;;;;;;14.06;100.00;100183.34;4865863;29;20034;-86
2022/06/08 05:02:10;;;;;;;10.20;4.10;;;;;;;13.97;100.00;100163.97;4871427;29;20540;-87
2022/06/08 05:04:36;;;;;;;9.55;3.90;;;;;;;14.05;100.00;100192.53;4872574;29;20050;-89
2022/06/08 05:07:04;;;;;;;13.18;3.65;;;;;;;13.61;100.00;100103.69;4878967;29;20025;-88
2022/06/08 05:09:31;;;;;;;10.73;4.00;;;;;;;14.20;100.00;100178.50;4873753;29;20018;-89
2022/06/08 05:11:56;;;;;;;7.53;3.42;;;;;;;14.17;100.00;100163.59;4875881;29;20017;-87
2022/06/08 05:14:22;;;;;;;8.15;4.43;;;;;;;14.28;100.00;100186.25;4858458;29;20061;-86
2022/06/08 05:16:47;;;;;;;14.43;4.43;;;;;;;14.26;100.00;100182.97;4870029;29;20038;-84
2022/06/08 05:19:12;;;;;;;13.35;4.60;;;;;;;14.23;100.00;100188.84;4842674;29;20109;-85
2022/06/08 05:21:38;;;;;;;8.45;3.53;;;;;;;14.17;100.00;100177.13;4861844;29;20026;-87
2022/06/08 05:24:04;;;;;;;11.00;3.55;;;;;;;14.06;100.00;100167.94;4872717;29;20025;-86
2022/06/08 05:26:30;;;;;;;14.45;3.85;;;;;;;14.07;100.00;100179.56;4860071;29;20092;-87
2022/06/08 05:28:55;;;;;;;11.25;3.58;;;;;;;13.86;100.00;100151.25;4863564;29;20046;-88
2022/06/08 05:31:20;;;;;;;10.40;4.07;;;;;;;14.08;100.00;100184.75;4878441;29;20038;-88
2022/06/08 05:33:46;;;;;;;8.43;3.72;;;;;;;14.00;100.00;100165.34;4840498;29;20033;-86
2022/06/08 05:36:12;;;;;;;11.93;4.10;;;;;;;14.16;100.00;100167.31;4845957;29;20034;-86
2022/06/08 05:38:37;;;;;;;8.40;3.72;;;;;;;14.06;100.00;100146.28;4865675;29;20053;-85
2022/06/08 05:41:02;;;;;;;8.43;3.88;;;;;;;14.26;100.00;100169.44;4870301;29;20082;-86
2022/06/08 05:43:28;;;;;;;8.90;4.45;;;;;;;14.42;100.00;100175.97;4866768;29;20040;-84
2022/06/08 05:45:57;;;;;;;10.52;3.92;;;;;;;14.44;100.00;100166.56;4864941;29;20049;-86
2022/06/08 05:48:22;;;;;;;8.82;4.03;;;;;;;14.53;100.00;100172.44;4854534;29;20083;-89
2022/06/08 05:50:48;;;;;;;9.50;3.80;;;;;;;14.57;100.00;100166.31;4859501;29;20033;-88
2022/06/08 05:53:15;;;;;;;9.02;3.80;;;;;;;14.69;100.00;100177.09;4872260;29;20029;-84
2022/06/08 05:55:41;;;;;;;5.13;3.70;;;;;;;14.83;100.00;100169.50;4861891;29;20062;-86
2022/06/08 05:58:07;;;;;;;6.15;3.45;;;;;;;14.88;100.00;100180.44;4863031;29;20041;-87
2022/06/08 06:00:36;;;;;;;8.82;4.20;;;;;;;14.84;100.00;100173.88;4855333;29;20053;-85
2022/06/08 06:03:02;;;;;;;9.77;4.05;;;;;;;14.56;100.00;100140.28;4863559;29;20030;-83
2022/06/08 06:05:31;;;;;;;10.10;4.30;;;;;;;14.69;100.00;100149.19;4857217;29;20067;-86
2022/06/08 06:07:58;;;;;;;11.27;3.70;;;;;;;14.84;100.00;100178.47;4860542;29;20036;-88
2022/06/08 06:10:28;;;;;;;8.80;3.60;;;;;;;14.87;100.00;100186.91;4856139;29;20068;-84
2022/06/08 06:12:55;;;;;;;10.25;3.67;;;;;;;14.89;100.00;100176.66;4863452;29;20034;-89
2022/06/08 06:15:24;;;;;;;6.63;3.13;;;;;;;14.99;100.00;100184.97;4874328;29;20037;-89
2022/06/08 06:17:50;;;;;;;10.13;4.35;;;;;;;14.99;100.00;100187.66;4862507;29;20037;-86
2022/06/08 06:20:15;;;;;;;11.63;3.88;;;;;;;15.03;100.00;100186.13;4858081;29;20580;-87
2022/06/08 06:22:41;;;;;;;9.10;3.75;;;;;;;15.12;100.00;100188.44;4862717;29;20129;-86
2022/06/08 06:25:08;;;;;;;7.45;3.58;;;;;;;15.19;100.00;100198.06;4859188;29;20034;-87
2022/06/08 06:27:35;;;;;;;11.63;3.55;;;;;;;15.15;100.00;100183.34;4858654;29;20034;-86
2022/06/08 06:30:00;;;;;;;8.10;3.78;;;;;;;15.15;100.00;100163.56;4871904;29;20033;-87
2022/06/08 06:32:30;;;;;;;6.05;3.53;;;;;;;15.17;100.00;100170.38;4863608;29;20034;-88
2022/06/08 06:34:58;;;;;;;8.93;3.80;;;;;;;15.28;100.00;100190.34;4863269;29;20045;-86
2022/06/08 06:37:24;;;;;;;7.25;3.35;;;;;;;15.39;100.00;100200.28;4862430;29;20110;-85
2022/06/08 06:39:50;;;;;;;10.45;3.60;;;;;;;15.43;100.00;100195.19;4862528;29;20033;-85
2022/06/08 06:42:19;;;;;;;7.82;3.20;;;;;;;15.48;100.00;100196.09;4851325;29;20053;-87
2022/06/08 06:44:44;;;;;;;10.35;3.55;;;;;;;15.48;100.00;100198.81;4861782;29;20030;-83
2022/06/08 06:47:09;;;;;;;7.20;2.95;;;;;;;15.55;100.00;100195.13;4861906;29;20049;-84
2022/06/08 06:49:35;;;;;;;6.78;3.20;;;;;;;15.55;100.00;100195.94;4859171;29;20098;-86
2022/06/08 06:52:00;;;;;;;9.30;3.22;;;;;;;15.75;100.00;100209.03;4860437;29;20036;-87
2022/06/08 06:54:26;;;;;;;11.32;3.33;;;;;;;15.59;100.00;100171.84;4861408;29;20040;-85
2022/06/08 06:56:51;;;;;;;6.63;2.78;;;;;;;15.68;100.00;100167.69;4858804;29;20074;-87
2022/06/08 06:59:16;;;;;;;9.35;3.17;;;;;;;15.78;100.00;100213.16;4860235;29;20487;-84
2022/06/08 07:01:42;;;;;;;11.70;3.30;;;;;;;15.72;100.00;100223.09;4867096;29;20392;-84
2022/06/08 07:04:08;;;;;;;7.75;3.20;;;;;;;15.70;100.00;100209.78;4869616;29;20017;-83
2022/06/08 07:06:33;;;;;;;8.35;3.15;;;;;;;15.80;100.00;100219.97;4861271;29;20030;-83
2022/06/08 07:09:01;;;;;;;8.43;3.45;;;;;;;15.84;100.00;100218.41;4853813;29;20025;-82
2022/06/08 07:11:40;;;;;;;6.38;2.88;;;;;;;15.85;100.00;100222.75;4867031;29;20026;-87
2022/06/08 07:14:14;;;;;;;6.53;2.58;;;;;;;15.59;100.00;100205.22;4860673;29;20062;-86
2022/06/08 07:16:40;;;;;;;10.70;3.30;;;;;;;15.55;100.00;100208.69;4860747;29;20068;-85
2022/06/08 07:19:08;;;;;;;10.40;3.25;;;;;;;15.77;100.00;100228.59;4862294;29;20380;-85
2022/06/08 07:21:33;;;;;;;8.48;3.10;;;;;;;15.69;100.00;100210.88;4867320;29;20040;-88
2022/06/08 07:23:58;;;;;;;9.82;3.30;;;;;;;15.74;100.00;100215.53;4864636;29;20034;-88
2022/06/08 07:26:25;;;;;;;13.30;3.60;;;;;;;15.96;100.00;100232.69;4836438;29;20277;-87
2022/06/08 07:28:53;;;;;;;8.18;2.55;;;;;;;16.04;100.00;100234.16;4865165;29;20082;-86
2022/06/08 07:31:19;;;;;;;9.07;2.92;;;;;;;15.94;100.00;100220.44;4859035;29;20115;-86
2022/06/08 07:33:45;;;;;;;5.75;2.75;;;;;;;16.02;100.00;100232.75;4868206;29;20025;-87
2022/06/08 07:36:10;;;;;;;10.57;3.30;;;;;;;16.10;100.00;100243.22;4871908;29;20049;-88
2022/06/08 07:38:36;;;;;;;9.18;2.80;;;;;;;16.17;100.00;100247.38;4868619;29;20037;-84
2022/06/08 07:41:01;;;;;;;7.28;2.78;;;;;;;16.19;100.00;100250.69;4858104;29;20109;-85
2022/06/08 07:43:27;;;;;;;8.82;2.83;;;;;;;16.28;100.00;100248.34;4859241;29;20034;-87
2022/06/08 07:45:52;;;;;;;8.23;2.67;;;;;;;16.31;100.00;100250.56;4857688;29;20030;-86
2022/06/08 07:51:02;;;;;;;10.38;2.85;;;;;;;16.37;100.00;100256.88;4857296;29;20045;-85
2022/06/08 07:53:28;;;;;;;8.90;2.28;;;;;;;16.43;100.00;100250.47;4871973;29;20105;-84
2022/06/08 07:55:53;;;;;;;6.80;2.35;;;;;;;16.49;100.00;100246.75;4861221;29;20044;-86
2022/06/08 07:58:19;;;;;;;11.35;2.30;;;;;;;16.70;100.00;100249.72;4864694;29;20033;-85
2022/06/08 08:00:47;;;;;;;5.95;2.05;;;;;;;16.85;100.00;100256.19;4861079;29;20044;-86
2022/06/08 08:03:17;;;;;;;8.77;2.03;;;;;;;16.91;100.00;100262.47;4872511;29;20045;-85
2022/06/08 08:05:44;;;;;;;6.13;1.95;;;;;;;16.94;100.00;100261.16;4875627;29;20040;-85
2022/06/08 08:08:12;;;;;;;5.43;2.00;;;;;;;16.86;100.00;100251.56;4873066;29;20022;-84
2022/06/08 08:10:37;;;;;;;6.07;2.45;;;;;;;16.95;100.00;100268.22;4864656;29;20032;-86
2022/06/08 08:13:03;;;;;;;8.55;2.60;;;;;;;16.91;100.00;100247.00;4879561;29;20061;-83
2022/06/08 08:15:29;;;;;;;7.25;2.33;;;;;;;17.06;100.00;100259.13;4885233;29;20076;-86
2022/06/08 08:17:55;;;;;;;5.43;2.03;;;;;;;17.00;100.00;100257.41;4865327;29;20222;-86
2022/06/08 08:20:24;;;;;;;5.45;2.28;;;;;;;17.10;100.00;100271.94;4882116;29;20029;-82
2022/06/08 08:22:50;;;;;;;5.03;2.25;;;;;;;17.08;100.00;100278.69;4872440;29;20041;-83
2022/06/08 08:25:17;;;;;;;5.57;2.25;;;;;;;17.10;100.00;100282.00;4864519;29;20056;-84
2022/06/08 08:27:43;;;;;;;8.40;2.42;;;;;;;17.19;100.00;100288.63;4871310;29;20089;-87
2022/06/08 08:30:11;;;;;;;5.60;2.20;;;;;;;17.04;100.00;100261.25;4892855;29;20110;-89
2022/06/08 08:32:37;;;;;;;5.53;1.90;;;;;;;17.14;100.00;100275.78;4869266;29;20440;-84
2022/06/08 08:35:04;;;;;;;6.45;2.20;;;;;;;17.41;100.00;100276.88;4867067;29;20098;-84
2022/06/08 08:37:30;;;;;;;7.40;2.22;;;;;;;17.49;100.00;100276.41;4858441;29;20049;-84
2022/06/08 08:39:56;;;;;;;7.90;2.05;;;;;;;17.59;100.00;100280.03;4868085;29;20029;-87
2022/06/08 08:42:24;;;;;;;7.35;2.17;;;;;;;17.68;100.00;100272.25;4884886;29;20033;-86
2022/06/08 08:44:53;;;;;;;7.25;2.10;;;;;;;17.78;100.00;100277.78;4870417;29;20026;-84
2022/06/08 08:47:49;;;;;;;9.45;2.90;;;;;;;17.88;100.00;100298.00;4897431;29;20043;-84
2022/06/08 08:50:23;;;;;;;7.03;2.30;;;;;;;18.02;100.00;100304.66;4895909;29;20037;-85
2022/06/08 08:52:55;;;;;;;8.10;2.10;;;;;;;18.11;100.00;100307.69;4895571;29;20029;-85
2022/06/08 08:55:30;;;;;;;6.53;2.13;;;;;;;18.12;100.00;100298.47;4887989;29;20112;-85
2022/06/08 08:57:58;;;;;;;4.93;2.20;;;;;;;18.04;100.00;100305.19;4867202;29;20040;-86
2022/06/08 09:00:29;;;;;;;6.70;2.03;;;;;;;18.01;100.00;100305.72;4877379;29;20025;-85
2022/06/08 09:05:41;;;;;;;5.90;1.90;;;;;;;17.71;100.00;100292.66;4883412;29;20036;-85
2022/06/08 09:08:11;;;;;;;5.57;2.10;;;;;;;17.51;100.00;100296.81;4886533;29;20024;-86
2022/06/08 09:10:37;;;;;;;4.47;1.90;;;;;;;17.60;100.00;100306.16;4893042;29;20025;-86
2022/06/08 09:13:04;;;;;;;4.22;1.65;;;;;;;17.62;100.00;100305.91;4871565;29;20068;-86
2022/06/08 09:15:57;;;;;;;6.88;1.80;;;;;;;18.02;100.00;100319.09;4869641;29;20049;-87
2022/06/08 09:18:34;;;;;;;6.57;2.15;;;;;;;18.13;100.00;100313.72;4883504;29;20048;-86
2022/06/08 09:21:21;;;;;;;5.03;2.10;;;;;;;18.04;100.00;100292.41;4891444;29;20042;-87
2022/06/08 09:23:49;;;;;;;5.55;1.92;;;;;;;18.30;100.00;100311.66;4875040;29;20057;-84
2022/06/08 09:26:24;;;;;;;6.95;2.03;;;;;;;18.52;100.00;100315.06;4895590;29;20040;-86
2022/06/08 09:28:57;;;;;;;;;;;;;;;18.53;100.00;100315.88;4897860;29;20076;-84
2022/06/08 09:31:25;;;;;;;7.50;2.50;;;;;;;18.36;100.00;100316.06;4892879;29;19912;-84
2022/06/08 09:34:04;;;;;;;5.70;2.13;;;;;;;18.31;100.00;100327.75;4875929;29;20084;-86
2022/06/08 09:36:29;;;;;;;8.15;2.13;;;;;;;18.41;100.00;100326.16;4877172;29;20035;-82
2022/06/08 09:38:54;;;;;;;5.85;2.13;;;;;;;18.28;100.00;100320.09;4878376;29;20061;-84
2022/06/08 09:41:50;;;;;;;5.85;2.20;;;;;;;18.17;100.00;100302.03;4872582;29;20033;-88
2022/06/08 09:44:36;;;;;;;12.25;2.70;;;;;;;18.34;100.00;100318.22;4892389;29;20034;-83
2022/06/08 09:53:05;;;;;;;6.38;2.38;;;;;;;18.11;100.00;100310.41;4877508;29;20074;-85
2022/06/08 09:55:54;;;;;;;5.78;2.25;;;;;;;18.17;100.00;100329.25;4858824;29;20044;-85
2022/06/08 09:58:45;;;;;;;8.40;2.00;;;;;;;18.05;100.00;100315.03;4898487;29;20018;-89
2022/06/08 10:01:19;;;;;;;6.57;2.40;;;;;;;18.13;100.00;100327.31;4869783;29;20071;-89
2022/06/08 10:03:56;;;;;;;5.32;2.03;;;;;;;18.23;100.00;100327.41;4885645;29;20030;-88
2022/06/08 10:06:28;;;;;;;9.25;2.33;;;;;;;18.26;100.00;100327.69;4897696;29;20032;-86
2022/06/08 10:09:06;;;;;;;5.38;2.30;;;;;;;18.34;100.00;100333.72;4877697;29;20029;-87
2022/06/08 10:11:50;;;;;;;5.57;2.30;;;;;;;18.35;100.00;100329.94;4885760;29;20029;-86
2022/06/08 10:14:25;;;;;;;5.73;2.67;;;;;;;18.54;100.00;100328.41;4895036;29;20085;-85
2022/06/08 10:16:59;;;;;;;6.10;2.45;;;;;;;18.84;100.00;100326.97;4903992;29;20017;-84
2022/06/08 10:19:39;;;;;;;6.10;2.10;;;;;;;19.13;100.00;100327.34;4894041;29;20075;-84
2022/06/08 10:22:04;;;;;;;6.13;2.33;;;;;;;18.95;100.00;100325.94;4864544;29;20030;-89
2022/06/08 10:24:47;;;;;;;6.00;2.13;;;;;;;18.92;100.00;100319.09;4886007;29;20044;-86
2022/06/08 10:27:28;;;;;;;5.80;2.28;;;;;;;18.80;100.00;100329.41;4897940;29;20024;-87
2022/06/08 10:30:16;;;;;;;3.63;2.10;;;;;;;18.78;100.00;100332.41;4884805;29;20030;-87
2022/06/08 10:32:47;;;;;;;5.47;2.30;;;;;;;19.03;100.00;100352.69;4883228;29;20017;-89
2022/06/08 10:35:21;;;;;;;4.28;2.10;;;;;;;18.91;100.00;100335.75;4894569;29;20037;-91
2022/06/08 10:37:50;;;;;;;3.53;1.80;;;;;;;18.58;100.00;100272.31;4913830;24;20030;-92
2022/06/08 10:40:21;;;;;;;5.70;1.75;;;;;;;18.36;100.00;100222.63;4831646;29;20051;-94
2022/06/08 10:42:48;;;;;;;3.88;1.77;;;;;;;18.80;100.00;100291.25;4849432;29;20102;-89
2022/06/08 10:45:23;;;;;;;5.88;2.30;;;;;;;18.89;100.00;100303.28;4865274;29;20022;-89
2022/06/08 10:48:03;;;;;;;5.47;1.90;;;;;;;19.20;100.00;100341.56;4864034;29;20137;-87
2022/06/08 10:56:26;;;;;;;5.60;1.90;;;;;;;19.39;100.00;100339.16;4841514;29;20137;-85
2022/06/08 10:59:03;;;;;;;7.15;1.95;;;;;;;19.41;100.00;100339.72;4819080;29;20021;-88
2022/06/08 11:01:53;;;;;;;5.57;2.00;;;;;;;19.44;100.00;100337.28;4832094;29;20018;-92
2022/06/08 11:04:32;;;;;;;4.55;1.80;;;;;;;19.72;100.00;100343.34;4822646;29;20034;-84
2022/06/08 11:07:05;;;;;;;4.70;1.85;;;;;;;19.53;100.00;100296.63;4825994;29;20090;-88
2022/06/08 11:09:36;;;;;;;4.05;1.70;;;;;;;20.03;100.00;100348.84;4822935;29;20020;-87
2022/06/08 11:12:05;;;;;;;2.72;1.50;;;;;;;19.79;100.00;100341.19;4827061;29;20010;-88
2022/06/08 11:14:52;;;;;;;4.25;1.70;;;;;;;19.15;100.00;100211.47;4843449;29;20077;-88
2022/06/08 11:17:26;;;;;;;4.57;1.40;;;;;;;19.62;100.00;100296.91;4823862;29;20022;-86
2022/06/08 11:19:56;;;;;;;3.45;1.30;;;;;;;19.92;100.00;100351.56;4824235;29;20037;-87
2022/06/08 11:22:37;;;;;;;2.80;1.20;;;;;;;19.03;100.00;100273.59;4833807;29;20046;-86
2022/06/08 11:25:14;;;;;;;3.75;1.40;;;;;;;18.72;100.00;100245.44;4823582;29;20019;-86
2022/06/08 11:27:40;;;;;;;3.75;1.70;;;;;;;18.66;100.00;100277.25;4838398;29;20033;-85
2022/06/08 11:30:26;;;;;;;6.28;1.58;;;;;;;18.84;100.00;100291.53;4826600;29;20038;-87
2022/06/08 11:32:51;;;;;;;3.78;1.83;;;;;;;19.22;100.00;100372.94;4841094;29;20045;-87
2022/06/08 11:38:08;;;;;;;6.30;2.20;;;;;;;19.15;100.00;100383.28;5001252;24;20063;-85
2022/06/08 11:40:36;;;;;;;4.97;2.10;;;;;;;18.29;100.00;100261.00;4855785;29;20034;-89
2022/06/08 11:43:34;;;;;;;6.47;2.13;;;;;;;18.32;100.00;100260.47;4881863;29;20717;-87
2022/06/08 11:46:01;;;;;;;5.38;2.60;;;;;;;18.89;100.00;100283.38;4858073;29;20049;-89
2022/06/08 11:48:42;;;;;;;7.25;2.25;;;;;;;18.81;100.00;100262.06;4863680;29;20033;-87
2022/06/08 11:51:07;;;;;;;4.82;2.03;;;;;;;19.23;100.00;100311.84;4867950;29;20026;-89
2022/06/08 11:53:39;;;;;;;7.85;2.40;;;;;;;18.81;100.00;100260.19;4903459;24;20068;-88